sensor_id;sensor_type;location;lat;lon;timestamp;P1;durP1;ratioP1;P2;durP2;ratioP2
31087;SDS011;17745;55.914;37.554;2023-01-30T00:00:11;12.50;;;7.40;;
31087;SDS011;17745;55.914;37.554;2023-01-30T00:02:42;12.32;;;7.47;;
31087;SDS011;17745;55.914;37.554;2023-01-30T00:05:10;14.15;;;7.87;;
31087;SDS011;17745;55.914;37.554;2023-01-30T00:07:38;11.00;;;7.15;;
31087;SDS011;17745;55.914;37.554;2023-01-30T00:10:21;11.02;;;7.62;;
31087;SDS011;17745;55.914;37.554;2023-01-30T00:12:49;8.15;;;5.40;;
31087;SDS011;17745;55.914;37.554;2023-01-30T00:15:32;10.27;;;6.70;;
31087;SDS011;17745;55.914;37.554;2023-01-30T00:18:03;11.63;;;7.72;;
31087;SDS011;17745;55.914;37.554;2023-01-30T00:20:33;11.75;;;7.10;;
31087;SDS011;17745;55.914;37.554;2023-01-30T00:23:11;11.50;;;7.18;;
31087;SDS011;17745;55.914;37.554;2023-01-30T00:25:44;10.95;;;6.85;;
31087;SDS011;17745;55.914;37.554;2023-01-30T00:28:15;10.30;;;6.90;;
31087;SDS011;17745;55.914;37.554;2023-01-30T00:30:50;11.27;;;7.25;;
31087;SDS011;17745;55.914;37.554;2023-01-30T00:33:22;10.73;;;7.07;;
31087;SDS011;17745;55.914;37.554;2023-01-30T00:35:57;9.90;;;6.72;;
31087;SDS011;17745;55.914;37.554;2023-01-30T00:38:30;11.43;;;7.43;;
31087;SDS011;17745;55.914;37.554;2023-01-30T00:41:00;12.37;;;7.03;;
31087;SDS011;17745;55.914;37.554;2023-01-30T00:43:38;11.40;;;7.47;;
31087;SDS011;17745;55.914;37.554;2023-01-30T00:46:35;9.70;;;6.82;;
31087;SDS011;17745;55.914;37.554;2023-01-30T00:49:22;10.93;;;6.87;;
31087;SDS011;17745;55.914;37.554;2023-01-30T00:52:09;14.52;;;7.90;;
31087;SDS011;17745;55.914;37.554;2023-01-30T00:54:46;16.25;;;8.65;;
31087;SDS011;17745;55.914;37.554;2023-01-30T00:57:25;11.02;;;7.37;;
31087;SDS011;17745;55.914;37.554;2023-01-30T01:00:13;12.45;;;7.72;;
31087;SDS011;17745;55.914;37.554;2023-01-30T01:03:14;12.43;;;7.75;;
31087;SDS011;17745;55.914;37.554;2023-01-30T01:05:44;11.77;;;6.93;;
31087;SDS011;17745;55.914;37.554;2023-01-30T01:08:13;14.27;;;6.93;;
31087;SDS011;17745;55.914;37.554;2023-01-30T01:10:44;12.37;;;6.55;;
31087;SDS011;17745;55.914;37.554;2023-01-30T01:13:14;11.55;;;7.57;;
31087;SDS011;17745;55.914;37.554;2023-01-30T01:15:43;13.93;;;7.45;;
31087;SDS011;17745;55.914;37.554;2023-01-30T01:18:12;12.18;;;7.78;;
31087;SDS011;17745;55.914;37.554;2023-01-30T01:20:42;13.68;;;8.48;;
31087;SDS011;17745;55.914;37.554;2023-01-30T01:23:13;12.07;;;7.53;;
31087;SDS011;17745;55.914;37.554;2023-01-30T01:28:19;13.13;;;8.05;;
31087;SDS011;17745;55.914;37.554;2023-01-30T01:30:50;12.73;;;8.07;;
31087;SDS011;17745;55.914;37.554;2023-01-30T01:33:23;12.90;;;8.23;;
31087;SDS011;17745;55.914;37.554;2023-01-30T01:35:54;12.48;;;8.02;;
31087;SDS011;17745;55.914;37.554;2023-01-30T01:38:25;15.63;;;9.40;;
31087;SDS011;17745;55.914;37.554;2023-01-30T01:40:54;15.63;;;8.40;;
31087;SDS011;17745;55.914;37.554;2023-01-30T01:43:34;15.13;;;8.13;;
31087;SDS011;17745;55.914;37.554;2023-01-30T01:46:07;12.02;;;8.35;;
31087;SDS011;17745;55.914;37.554;2023-01-30T01:48:46;16.02;;;7.85;;
31087;SDS011;17745;55.914;37.554;2023-01-30T01:51:26;13.15;;;8.32;;
31087;SDS011;17745;55.914;37.554;2023-01-30T01:54:05;13.00;;;7.78;;
31087;SDS011;17745;55.914;37.554;2023-01-30T01:56:37;16.35;;;9.80;;
31087;SDS011;17745;55.914;37.554;2023-01-30T01:59:13;15.77;;;8.90;;
31087;SDS011;17745;55.914;37.554;2023-01-30T02:01:48;16.23;;;9.32;;
31087;SDS011;17745;55.914;37.554;2023-01-30T02:04:25;16.60;;;8.48;;
31087;SDS011;17745;55.914;37.554;2023-01-30T02:07:13;14.82;;;8.98;;
31087;SDS011;17745;55.914;37.554;2023-01-30T02:09:47;16.00;;;8.20;;
31087;SDS011;17745;55.914;37.554;2023-01-30T02:12:19;16.25;;;8.98;;
31087;SDS011;17745;55.914;37.554;2023-01-30T02:14:47;13.95;;;8.85;;
31087;SDS011;17745;55.914;37.554;2023-01-30T02:17:39;18.15;;;8.90;;
31087;SDS011;17745;55.914;37.554;2023-01-30T02:20:13;13.75;;;7.60;;
31087;SDS011;17745;55.914;37.554;2023-01-30T02:23:06;16.80;;;8.82;;
31087;SDS011;17745;55.914;37.554;2023-01-30T02:32:07;14.85;;;8.25;;
31087;SDS011;17745;55.914;37.554;2023-01-30T02:35:02;12.60;;;8.52;;
31087;SDS011;17745;55.914;37.554;2023-01-30T02:37:49;12.02;;;7.37;;
31087;SDS011;17745;55.914;37.554;2023-01-30T02:40:48;15.50;;;8.55;;
31087;SDS011;17745;55.914;37.554;2023-01-30T02:43:49;13.65;;;8.55;;
31087;SDS011;17745;55.914;37.554;2023-01-30T02:46:29;14.13;;;8.55;;
31087;SDS011;17745;55.914;37.554;2023-01-30T02:49:07;14.30;;;8.57;;
31087;SDS011;17745;55.914;37.554;2023-01-30T02:51:38;14.90;;;8.98;;
31087;SDS011;17745;55.914;37.554;2023-01-30T02:54:11;15.45;;;8.88;;
31087;SDS011;17745;55.914;37.554;2023-01-30T02:56:49;18.05;;;9.52;;
31087;SDS011;17745;55.914;37.554;2023-01-30T02:59:21;15.45;;;8.95;;
31087;SDS011;17745;55.914;37.554;2023-01-30T03:02:25;18.08;;;9.23;;
31087;SDS011;17745;55.914;37.554;2023-01-30T03:05:20;17.12;;;9.10;;
31087;SDS011;17745;55.914;37.554;2023-01-30T03:08:13;14.55;;;9.48;;
31087;SDS011;17745;55.914;37.554;2023-01-30T03:10:54;15.93;;;9.70;;
31087;SDS011;17745;55.914;37.554;2023-01-30T03:13:30;19.20;;;10.13;;
31087;SDS011;17745;55.914;37.554;2023-01-30T03:16:14;18.37;;;9.65;;
31087;SDS011;17745;55.914;37.554;2023-01-30T03:18:47;10.43;;;7.12;;
31087;SDS011;17745;55.914;37.554;2023-01-30T03:21:23;13.88;;;8.73;;
31087;SDS011;17745;55.914;37.554;2023-01-30T03:23:55;14.98;;;9.32;;
31087;SDS011;17745;55.914;37.554;2023-01-30T03:26:26;16.92;;;10.18;;
31087;SDS011;17745;55.914;37.554;2023-01-30T03:29:07;17.48;;;10.15;;
31087;SDS011;17745;55.914;37.554;2023-01-30T03:31:39;15.48;;;9.15;;
31087;SDS011;17745;55.914;37.554;2023-01-30T03:34:08;14.82;;;9.32;;
31087;SDS011;17745;55.914;37.554;2023-01-30T03:36:39;17.12;;;9.60;;
31087;SDS011;17745;55.914;37.554;2023-01-30T03:39:10;18.00;;;10.27;;
31087;SDS011;17745;55.914;37.554;2023-01-30T03:41:40;16.12;;;10.48;;
31087;SDS011;17745;55.914;37.554;2023-01-30T03:44:11;15.13;;;9.50;;
31087;SDS011;17745;55.914;37.554;2023-01-30T03:47:02;15.57;;;9.65;;
31087;SDS011;17745;55.914;37.554;2023-01-30T03:49:35;16.30;;;8.35;;
31087;SDS011;17745;55.914;37.554;2023-01-30T03:52:11;16.30;;;10.50;;
31087;SDS011;17745;55.914;37.554;2023-01-30T03:54:43;15.70;;;10.20;;
31087;SDS011;17745;55.914;37.554;2023-01-30T03:57:16;15.85;;;9.85;;
31087;SDS011;17745;55.914;37.554;2023-01-30T03:59:59;20.58;;;10.77;;
31087;SDS011;17745;55.914;37.554;2023-01-30T04:05:17;18.40;;;11.07;;
31087;SDS011;17745;55.914;37.554;2023-01-30T04:08:22;15.65;;;10.43;;
31087;SDS011;17745;55.914;37.554;2023-01-30T04:10:57;14.75;;;10.02;;
31087;SDS011;17745;55.914;37.554;2023-01-30T04:13:37;17.48;;;9.10;;
31087;SDS011;17745;55.914;37.554;2023-01-30T04:16:27;11.27;;;7.45;;
31087;SDS011;17745;55.914;37.554;2023-01-30T04:19:05;16.55;;;9.35;;
31087;SDS011;17745;55.914;37.554;2023-01-30T04:21:36;12.37;;;8.43;;
31087;SDS011;17745;55.914;37.554;2023-01-30T04:24:14;15.07;;;9.30;;
31087;SDS011;17745;55.914;37.554;2023-01-30T04:26:43;13.00;;;8.00;;
31087;SDS011;17745;55.914;37.554;2023-01-30T04:29:14;14.07;;;9.38;;
31087;SDS011;17745;55.914;37.554;2023-01-30T04:31:50;14.15;;;8.70;;
31087;SDS011;17745;55.914;37.554;2023-01-30T04:34:33;17.92;;;9.48;;
31087;SDS011;17745;55.914;37.554;2023-01-30T04:37:26;14.77;;;9.23;;
31087;SDS011;17745;55.914;37.554;2023-01-30T04:40:47;15.93;;;10.10;;
31087;SDS011;17745;55.914;37.554;2023-01-30T04:43:18;15.05;;;9.95;;
31087;SDS011;17745;55.914;37.554;2023-01-30T04:46:10;13.30;;;9.40;;
31087;SDS011;17745;55.914;37.554;2023-01-30T04:49:03;15.15;;;10.32;;
31087;SDS011;17745;55.914;37.554;2023-01-30T04:51:41;13.85;;;8.95;;
31087;SDS011;17745;55.914;37.554;2023-01-30T04:54:19;13.88;;;9.98;;
31087;SDS011;17745;55.914;37.554;2023-01-30T04:56:55;15.32;;;10.07;;
31087;SDS011;17745;55.914;37.554;2023-01-30T04:59:31;14.20;;;9.48;;
31087;SDS011;17745;55.914;37.554;2023-01-30T05:02:06;16.48;;;9.52;;
31087;SDS011;17745;55.914;37.554;2023-01-30T05:04:42;15.13;;;8.55;;
31087;SDS011;17745;55.914;37.554;2023-01-30T05:07:14;15.63;;;9.82;;
31087;SDS011;17745;55.914;37.554;2023-01-30T05:10:02;11.93;;;8.07;;
31087;SDS011;17745;55.914;37.554;2023-01-30T05:18:57;15.48;;;9.20;;
31087;SDS011;17745;55.914;37.554;2023-01-30T05:21:34;13.27;;;9.27;;
31087;SDS011;17745;55.914;37.554;2023-01-30T05:24:21;15.23;;;8.60;;
31087;SDS011;17745;55.914;37.554;2023-01-30T05:27:20;15.65;;;9.63;;
31087;SDS011;17745;55.914;37.554;2023-01-30T05:56:12;15.30;;;9.93;;
31087;SDS011;17745;55.914;37.554;2023-01-30T05:59:19;14.60;;;9.82;;
31087;SDS011;17745;55.914;37.554;2023-01-30T06:02:07;15.10;;;9.93;;
31087;SDS011;17745;55.914;37.554;2023-01-30T06:04:40;18.15;;;10.45;;
31087;SDS011;17745;55.914;37.554;2023-01-30T06:07:11;15.48;;;10.23;;
31087;SDS011;17745;55.914;37.554;2023-01-30T06:10:58;17.23;;;10.32;;
31087;SDS011;17745;55.914;37.554;2023-01-30T06:13:59;17.55;;;10.13;;
31087;SDS011;17745;55.914;37.554;2023-01-30T06:16:30;15.95;;;9.55;;
31087;SDS011;17745;55.914;37.554;2023-01-30T06:19:05;17.73;;;11.10;;
31087;SDS011;17745;55.914;37.554;2023-01-30T06:21:42;19.05;;;11.27;;
31087;SDS011;17745;55.914;37.554;2023-01-30T06:24:16;14.97;;;8.63;;
31087;SDS011;17745;55.914;37.554;2023-01-30T06:30:11;14.52;;;10.07;;
31087;SDS011;17745;55.914;37.554;2023-01-30T06:32:51;15.60;;;9.38;;
31087;SDS011;17745;55.914;37.554;2023-01-30T06:35:21;21.20;;;11.00;;
31087;SDS011;17745;55.914;37.554;2023-01-30T06:37:56;15.98;;;10.05;;
31087;SDS011;17745;55.914;37.554;2023-01-30T06:40:58;12.63;;;7.95;;
31087;SDS011;17745;55.914;37.554;2023-01-30T06:44:07;15.07;;;9.80;;
31087;SDS011;17745;55.914;37.554;2023-01-30T07:07:19;14.68;;;9.43;;
31087;SDS011;17745;55.914;37.554;2023-01-30T07:09:53;12.77;;;8.37;;
31087;SDS011;17745;55.914;37.554;2023-01-30T07:12:56;16.62;;;9.77;;
31087;SDS011;17745;55.914;37.554;2023-01-30T07:15:36;12.50;;;8.55;;
31087;SDS011;17745;55.914;37.554;2023-01-30T07:28:45;13.50;;;8.90;;
31087;SDS011;17745;55.914;37.554;2023-01-30T07:32:36;13.35;;;8.00;;
31087;SDS011;17745;55.914;37.554;2023-01-30T07:38:39;14.43;;;9.68;;
31087;SDS011;17745;55.914;37.554;2023-01-30T07:41:45;12.57;;;8.00;;
31087;SDS011;17745;55.914;37.554;2023-01-30T07:58:01;12.10;;;7.87;;
31087;SDS011;17745;55.914;37.554;2023-01-30T08:01:07;15.07;;;7.80;;
31087;SDS011;17745;55.914;37.554;2023-01-30T08:07:19;13.85;;;8.70;;
31087;SDS011;17745;55.914;37.554;2023-01-30T08:10:33;14.40;;;8.18;;
31087;SDS011;17745;55.914;37.554;2023-01-30T08:35:01;14.32;;;8.30;;
31087;SDS011;17745;55.914;37.554;2023-01-30T08:37:48;17.60;;;8.40;;
31087;SDS011;17745;55.914;37.554;2023-01-30T09:01:47;13.63;;;8.47;;
31087;SDS011;17745;55.914;37.554;2023-01-30T09:22:04;13.05;;;8.82;;
31087;SDS011;17745;55.914;37.554;2023-01-30T09:25:20;20.58;;;9.00;;
31087;SDS011;17745;55.914;37.554;2023-01-30T09:28:10;16.20;;;7.85;;
31087;SDS011;17745;55.914;37.554;2023-01-30T09:31:14;14.57;;;8.00;;
31087;SDS011;17745;55.914;37.554;2023-01-30T09:34:40;12.52;;;7.90;;
31087;SDS011;17745;55.914;37.554;2023-01-30T09:37:19;14.80;;;8.85;;
31087;SDS011;17745;55.914;37.554;2023-01-30T09:43:56;14.48;;;7.15;;
31087;SDS011;17745;55.914;37.554;2023-01-30T09:50:42;12.20;;;7.65;;
31087;SDS011;17745;55.914;37.554;2023-01-30T09:54:38;12.25;;;6.70;;
31087;SDS011;17745;55.914;37.554;2023-01-30T10:36:08;15.85;;;8.07;;
31087;SDS011;17745;55.914;37.554;2023-01-30T11:07:54;13.57;;;6.93;;
31087;SDS011;17745;55.914;37.554;2023-01-30T11:18:03;14.85;;;7.68;;
31087;SDS011;17745;55.914;37.554;2023-01-30T22:52:36;6.90;;;4.60;;
31087;SDS011;17745;55.914;37.554;2023-01-30T22:55:37;7.53;;;4.45;;
31087;SDS011;17745;55.914;37.554;2023-01-30T22:58:07;8.65;;;5.32;;
31087;SDS011;17745;55.914;37.554;2023-01-30T23:00:37;7.40;;;4.37;;
31087;SDS011;17745;55.914;37.554;2023-01-30T23:03:25;10.30;;;6.43;;
31087;SDS011;17745;55.914;37.554;2023-01-30T23:06:02;7.85;;;5.22;;
31087;SDS011;17745;55.914;37.554;2023-01-30T23:08:35;9.80;;;5.45;;
31087;SDS011;17745;55.914;37.554;2023-01-30T23:11:11;8.07;;;5.70;;
31087;SDS011;17745;55.914;37.554;2023-01-30T23:13:56;9.70;;;5.87;;
31087;SDS011;17745;55.914;37.554;2023-01-30T23:16:37;8.48;;;5.55;;
31087;SDS011;17745;55.914;37.554;2023-01-30T23:19:30;9.02;;;5.70;;
31087;SDS011;17745;55.914;37.554;2023-01-30T23:22:02;9.48;;;5.35;;
31087;SDS011;17745;55.914;37.554;2023-01-30T23:24:37;10.15;;;5.18;;
31087;SDS011;17745;55.914;37.554;2023-01-30T23:27:09;8.80;;;5.32;;
31087;SDS011;17745;55.914;37.554;2023-01-30T23:29:40;8.52;;;6.28;;
31087;SDS011;17745;55.914;37.554;2023-01-30T23:32:14;9.13;;;5.78;;
31087;SDS011;17745;55.914;37.554;2023-01-30T23:34:46;12.35;;;5.97;;
31087;SDS011;17745;55.914;37.554;2023-01-30T23:37:29;8.63;;;5.53;;
31087;SDS011;17745;55.914;37.554;2023-01-30T23:40:25;8.43;;;6.15;;
31087;SDS011;17745;55.914;37.554;2023-01-30T23:42:56;12.10;;;5.93;;
31087;SDS011;17745;55.914;37.554;2023-01-30T23:45:30;13.90;;;5.90;;
31087;SDS011;17745;55.914;37.554;2023-01-30T23:48:05;8.75;;;6.20;;
31087;SDS011;17745;55.914;37.554;2023-01-30T23:50:37;10.98;;;6.05;;
31087;SDS011;17745;55.914;37.554;2023-01-30T23:53:10;8.95;;;6.03;;
31087;SDS011;17745;55.914;37.554;2023-01-30T23:55:48;8.82;;;5.28;;
31087;SDS011;17745;55.914;37.554;2023-01-30T23:58:18;8.57;;;5.72;;
